createdAt,value
2018-12-29T00:00:58.814Z,27.20
2018-12-29T00:03:39.975Z,25.77
2018-12-29T00:06:21.749Z,26.27
2018-12-29T00:09:03.152Z,26.87
2018-12-29T00:11:44.256Z,25.80
2018-12-29T00:14:24.969Z,25.57
2018-12-29T00:17:06.676Z,25.73
2018-12-29T00:19:48.282Z,26.70
2018-12-29T00:22:29.558Z,26.00
2018-12-29T00:25:10.706Z,27.23
2018-12-29T00:27:51.956Z,24.80
2018-12-29T00:30:32.624Z,24.60
2018-12-29T00:33:13.863Z,27.03
2018-12-29T00:35:55.190Z,24.87
2018-12-29T00:38:25.100Z,26.80
2018-12-29T00:40:57.558Z,24.40
2018-12-29T00:43:46.036Z,25.57
2018-12-29T00:46:35.207Z,27.83
2018-12-29T00:49:23.962Z,26.53
2018-12-29T00:52:12.814Z,27.60
2018-12-29T00:55:01.579Z,27.17
2018-12-29T00:57:50.098Z,27.00
2018-12-29T01:00:39.370Z,25.60
2018-12-29T01:03:27.948Z,25.00
2018-12-29T01:06:19.618Z,29.40
2018-12-29T01:09:08.543Z,27.23
2018-12-29T01:11:57.206Z,26.53
2018-12-29T01:14:45.885Z,26.67
2018-12-29T01:17:34.850Z,25.47
2018-12-29T01:20:04.424Z,25.87
2018-12-29T01:22:46.029Z,27.17
2018-12-29T01:25:28.081Z,28.23
2018-12-29T01:28:09.583Z,26.20
2018-12-29T01:30:50.875Z,27.23
2018-12-29T01:33:32.797Z,27.37
2018-12-29T01:36:14.183Z,27.33
2018-12-29T01:38:55.896Z,25.70
2018-12-29T01:41:37.469Z,26.03
2018-12-29T01:44:18.851Z,27.83
2018-12-29T01:47:00.342Z,25.53
2018-12-29T01:49:41.926Z,27.73
2018-12-29T01:52:12.024Z,27.60
2018-12-29T01:55:00.596Z,24.93
2018-12-29T01:57:49.529Z,26.83
2018-12-29T02:00:38.635Z,25.07
2018-12-29T02:03:27.126Z,26.20
2018-12-29T02:06:08.649Z,26.37
2018-12-29T02:08:50.448Z,25.30
2018-12-29T02:11:31.782Z,26.73
2018-12-29T02:14:13.245Z,26.13
2018-12-29T02:16:54.960Z,24.70
2018-12-29T02:19:36.631Z,24.83
2018-12-29T02:22:18.597Z,26.50
2018-12-29T02:24:59.673Z,22.03
2018-12-29T02:27:41.235Z,24.10
2018-12-29T02:30:22.480Z,23.77
2018-12-29T02:33:04.003Z,23.70
2018-12-29T02:35:46.279Z,23.20
2018-12-29T02:38:27.309Z,21.33
2018-12-29T02:41:09.095Z,23.30
2018-12-29T02:46:33.729Z,21.40
2018-12-29T02:49:15.266Z,23.20
2018-12-29T02:51:56.111Z,21.43
2018-12-29T02:54:38.024Z,24.00
2018-12-29T02:57:19.551Z,23.00
2018-12-29T03:00:01.048Z,22.67
2018-12-29T03:02:42.586Z,23.97
2018-12-29T03:08:06.590Z,22.67
2018-12-29T03:10:48.219Z,22.03
2018-12-29T03:13:29.462Z,23.60
2018-12-29T03:16:11.875Z,23.13
2018-12-29T03:18:53.121Z,22.30
2018-12-29T03:21:34.928Z,22.93
2018-12-29T03:24:16.340Z,22.37
2018-12-29T03:26:57.418Z,22.90
2018-12-29T03:29:38.995Z,22.60
2018-12-29T03:35:26.150Z,21.50
2018-12-29T03:38:14.343Z,20.43
2018-12-29T03:41:03.874Z,24.10
2018-12-29T03:43:54.524Z,21.10
2018-12-29T03:46:43.440Z,21.73
2018-12-29T03:49:32.201Z,22.70
2018-12-29T03:52:20.956Z,23.30
2018-12-29T03:55:09.700Z,23.40
2018-12-29T03:58:05.971Z,23.87
2018-12-29T04:00:54.667Z,23.70
2018-12-29T04:03:43.639Z,23.13
2018-12-29T04:06:32.535Z,22.63
2018-12-29T04:09:14.121Z,23.80
2018-12-29T04:11:55.689Z,22.70
2018-12-29T04:17:20.315Z,23.07
2018-12-29T04:20:02.509Z,23.07
2018-12-29T04:22:44.402Z,22.03
2018-12-29T04:25:15.370Z,22.17
2018-12-29T04:28:04.333Z,23.00
2018-12-29T04:30:53.054Z,23.70
2018-12-29T04:33:41.291Z,22.83
2018-12-29T04:36:29.478Z,21.90
2018-12-29T04:39:17.970Z,22.97
2018-12-29T04:42:06.182Z,22.27
2018-12-29T04:44:54.634Z,23.03
2018-12-29T04:47:42.850Z,22.90
2018-12-29T04:50:31.083Z,22.90
2018-12-29T04:53:19.619Z,22.43
2018-12-29T04:56:08.180Z,23.30
2018-12-29T04:58:56.402Z,23.60
2018-12-29T05:04:51.899Z,23.50
2018-12-29T05:07:40.091Z,23.30
2018-12-29T05:10:20.983Z,24.23
2018-12-29T05:13:02.245Z,22.20
2018-12-29T05:15:42.943Z,22.33
2018-12-29T05:18:23.398Z,24.63
2018-12-29T05:21:04.567Z,22.30
2018-12-29T05:23:45.827Z,21.27
2018-12-29T05:26:27.693Z,21.60
2018-12-29T05:29:08.567Z,22.30
2018-12-29T05:31:49.910Z,21.63
2018-12-29T05:34:30.624Z,22.03
2018-12-29T05:37:11.502Z,25.33
2018-12-29T05:39:52.932Z,22.23
2018-12-29T05:42:33.326Z,22.07
2018-12-29T05:45:14.368Z,23.70
2018-12-29T05:47:55.160Z,22.00
2018-12-29T05:50:36.176Z,23.80
2018-12-29T05:53:17.658Z,22.80
2018-12-29T05:55:58.103Z,23.40
2018-12-29T05:58:39.191Z,23.30
2018-12-29T06:01:20.084Z,23.63
2018-12-29T06:04:00.733Z,23.10
2018-12-29T06:06:42.495Z,24.93
2018-12-29T06:09:23.760Z,24.50
2018-12-29T06:12:04.300Z,25.00
2018-12-29T06:14:45.051Z,23.80
2018-12-29T06:17:26.149Z,24.20
2018-12-29T06:20:06.847Z,24.87
2018-12-29T06:22:47.791Z,24.30
2018-12-29T06:25:28.962Z,26.10
2018-12-29T06:28:09.684Z,25.17
2018-12-29T06:30:50.443Z,24.07
2018-12-29T06:33:31.592Z,24.80
2018-12-29T06:36:12.353Z,26.07
2018-12-29T06:38:52.987Z,25.73
2018-12-29T06:41:33.608Z,24.60
2018-12-29T06:44:14.400Z,26.00
2018-12-29T06:46:55.134Z,25.90
2018-12-29T06:49:36.579Z,24.63
2018-12-29T06:54:53.269Z,23.70
2018-12-29T06:57:34.306Z,23.47
2018-12-29T07:00:14.701Z,27.93
2018-12-29T07:02:56.170Z,24.40
2018-12-29T07:05:37.496Z,26.13
2018-12-29T07:08:18.716Z,26.27
2018-12-29T07:11:00.028Z,26.27
2018-12-29T07:13:41.235Z,24.67
2018-12-29T07:16:21.822Z,26.67
2018-12-29T07:19:02.783Z,24.43
2018-12-29T07:21:32.171Z,24.40
2018-12-29T07:24:20.956Z,24.17
2018-12-29T07:27:09.415Z,25.30
2018-12-29T07:29:50.227Z,23.63
2018-12-29T07:32:30.995Z,22.77
2018-12-29T07:35:11.717Z,24.37
2018-12-29T07:37:52.427Z,24.30
2018-12-29T07:40:33.942Z,24.90
2018-12-29T07:43:03.090Z,22.50
2018-12-29T07:45:51.878Z,22.57
2018-12-29T07:48:40.103Z,21.43
2018-12-29T07:51:28.295Z,26.70
2018-12-29T07:54:16.524Z,21.73
2018-12-29T07:57:04.996Z,24.20
2018-12-29T07:59:53.479Z,23.80
2018-12-29T08:02:41.939Z,24.20
2018-12-29T08:05:30.413Z,22.70
2018-12-29T08:08:18.896Z,22.90
2018-12-29T08:11:07.358Z,26.13
2018-12-29T08:13:55.567Z,22.77
2018-12-29T08:16:43.760Z,24.97
2018-12-29T08:19:31.970Z,26.13
2018-12-29T08:22:20.164Z,25.50
2018-12-29T08:25:08.388Z,23.93
2018-12-29T08:27:56.639Z,25.47
2018-12-29T08:30:37.036Z,23.93
2018-12-29T08:33:18.332Z,24.60
2018-12-29T08:35:59.187Z,25.10
2018-12-29T08:38:40.252Z,23.97
2018-12-29T08:41:20.873Z,23.20
2018-12-29T08:44:01.716Z,25.97
2018-12-29T08:46:42.551Z,26.70
2018-12-29T08:49:23.262Z,25.23
2018-12-29T08:52:04.376Z,24.03
2018-12-29T08:54:45.120Z,24.17
2018-12-29T08:57:25.947Z,25.50
2018-12-29T09:06:03.830Z,24.50
2018-12-29T09:08:44.908Z,23.60
2018-12-29T09:11:25.354Z,23.17
2018-12-29T09:14:06.338Z,27.20
2018-12-29T09:16:47.071Z,27.20
2018-12-29T09:19:27.716Z,25.73
2018-12-29T09:22:08.624Z,24.33
2018-12-29T09:24:49.291Z,25.73
2018-12-29T09:27:30.655Z,23.77
2018-12-29T09:29:59.866Z,25.60
2018-12-29T09:32:29.254Z,26.40
2018-12-29T09:34:58.415Z,25.20
2018-12-29T09:37:27.851Z,28.60
2018-12-29T09:39:56.955Z,25.80
2018-12-29T09:42:26.326Z,23.93
2018-12-29T09:44:55.878Z,24.67
2018-12-29T09:47:24.975Z,26.60
2018-12-29T09:49:54.790Z,26.17
2018-12-29T09:52:43.243Z,23.93
2018-12-29T09:55:31.570Z,24.00
2018-12-29T09:58:19.823Z,25.10
2018-12-29T10:01:08.053Z,26.27
2018-12-29T10:03:56.246Z,23.27
2018-12-29T10:06:44.472Z,26.00
2018-12-29T10:09:32.761Z,25.27
2018-12-29T10:12:20.955Z,23.30
2018-12-29T10:15:09.181Z,25.93
2018-12-29T10:17:57.405Z,30.63
2018-12-29T10:20:45.680Z,25.80
2018-12-29T10:23:26.158Z,28.57
2018-12-29T10:26:07.519Z,26.73
2018-12-29T10:28:47.903Z,27.17
2018-12-29T10:31:28.795Z,26.20
2018-12-29T10:34:10.142Z,26.87
2018-12-29T10:36:51.171Z,25.57
2018-12-29T10:39:32.184Z,27.63
2018-12-29T10:42:12.870Z,27.03
2018-12-29T10:44:53.458Z,27.77
2018-12-29T10:47:34.970Z,29.40
2018-12-29T10:50:16.138Z,26.20
2018-12-29T10:52:57.023Z,27.90
2018-12-29T10:55:38.484Z,27.70
2018-12-29T10:58:19.292Z,26.67
2018-12-29T11:01:00.041Z,25.63
2018-12-29T11:03:41.162Z,26.07
2018-12-29T11:06:21.903Z,27.87
2018-12-29T11:09:03.007Z,26.20
2018-12-29T11:11:43.729Z,24.20
2018-12-29T11:14:24.632Z,24.60
2018-12-29T11:17:05.804Z,26.90
2018-12-29T11:19:46.410Z,25.90
2018-12-29T11:22:27.606Z,24.27
2018-12-29T11:25:08.494Z,25.40
2018-12-29T11:27:49.144Z,24.80
2018-12-29T11:30:30.027Z,23.83
2018-12-29T11:33:11.183Z,24.37
2018-12-29T11:35:52.175Z,23.17
2018-12-29T11:38:33.220Z,24.37
2018-12-29T11:41:14.902Z,24.03
2018-12-29T11:43:56.428Z,25.50
2018-12-29T11:46:37.131Z,26.50
2018-12-29T11:49:18.288Z,24.80
2018-12-29T11:51:47.906Z,26.87
2018-12-29T11:54:36.103Z,25.30
2018-12-29T11:57:24.323Z,26.30
2018-12-29T12:00:05.320Z,24.20
2018-12-29T12:02:46.211Z,25.00
2018-12-29T12:05:26.975Z,27.53
2018-12-29T12:08:07.844Z,27.93
2018-12-29T12:10:37.341Z,24.63
2018-12-29T12:13:25.647Z,25.73
2018-12-29T12:16:14.113Z,25.50
2018-12-29T12:19:02.775Z,24.80
2018-12-29T12:21:51.331Z,27.40
2018-12-29T12:24:39.515Z,23.57
2018-12-29T12:27:27.734Z,24.70
2018-12-29T12:30:17.668Z,25.43
2018-12-29T12:33:06.354Z,23.50
2018-12-29T12:35:54.623Z,23.50
2018-12-29T12:38:42.931Z,24.60
2018-12-29T12:41:31.238Z,23.03
2018-12-29T12:44:21.680Z,21.87
2018-12-29T12:47:09.979Z,22.20
2018-12-29T12:49:58.250Z,21.80
2018-12-29T12:52:47.152Z,23.87
2018-12-29T12:55:35.751Z,21.73
2018-12-29T12:58:25.711Z,22.00
2018-12-29T13:01:08.782Z,23.13
2018-12-29T13:03:49.782Z,23.77
2018-12-29T13:06:30.911Z,23.07
2018-12-29T13:09:11.969Z,20.90
2018-12-29T13:11:53.195Z,23.17
2018-12-29T13:14:34.711Z,23.30
2018-12-29T13:17:16.130Z,21.77
2018-12-29T13:19:56.887Z,22.83
2018-12-29T13:22:37.419Z,24.10
2018-12-29T13:25:18.292Z,23.30
2018-12-29T13:27:59.541Z,23.83
2018-12-29T13:30:40.250Z,22.87
2018-12-29T13:33:21.029Z,23.27
2018-12-29T13:36:02.549Z,23.23
2018-12-29T13:38:43.987Z,23.97
2018-12-29T13:41:25.287Z,22.60
2018-12-29T13:43:54.535Z,25.23
2018-12-29T13:46:44.451Z,23.97
2018-12-29T13:49:32.792Z,23.77
2018-12-29T13:52:21.109Z,23.20
2018-12-29T13:55:09.379Z,24.13
2018-12-29T13:57:57.691Z,23.00
2018-12-29T14:00:39.236Z,23.70
2018-12-29T14:03:20.088Z,23.10
2018-12-29T14:06:00.551Z,26.00
2018-12-29T14:08:41.582Z,24.90
2018-12-29T14:11:22.330Z,24.20
2018-12-29T14:14:02.971Z,25.07
2018-12-29T14:16:43.716Z,27.80
2018-12-29T14:19:24.681Z,25.17
2018-12-29T14:22:05.832Z,27.00
2018-12-29T14:24:47.479Z,27.33
2018-12-29T14:27:28.572Z,26.67
2018-12-29T14:30:09.072Z,26.70
2018-12-29T14:32:49.966Z,26.33
2018-12-29T14:35:31.063Z,28.00
2018-12-29T14:38:12.052Z,26.40
2018-12-29T14:40:52.972Z,27.00
2018-12-29T14:43:22.199Z,24.60
2018-12-29T14:46:12.888Z,25.73
2018-12-29T14:49:01.352Z,25.93
2018-12-29T14:51:51.323Z,26.77
2018-12-29T14:54:40.102Z,30.20
2018-12-29T14:57:28.616Z,26.53
2018-12-29T15:00:17.133Z,29.33
2018-12-29T15:02:48.294Z,25.80
2018-12-29T15:05:36.817Z,28.10
2018-12-29T15:08:25.115Z,26.87
2018-12-29T15:11:13.320Z,26.83
2018-12-29T15:14:01.655Z,27.50
2018-12-29T15:16:42.310Z,24.77
2018-12-29T15:19:11.821Z,25.47
2018-12-29T15:22:00.343Z,26.10
2018-12-29T15:24:48.571Z,26.37
2018-12-29T15:27:37.151Z,25.93
2018-12-29T15:30:25.435Z,25.93
2018-12-29T15:33:14.128Z,26.47
2018-12-29T15:36:02.719Z,24.07
2018-12-29T15:38:51.984Z,27.57
2018-12-29T15:41:41.464Z,25.60
2018-12-29T15:44:30.003Z,27.70
2018-12-29T15:47:11.323Z,26.47
2018-12-29T15:49:52.620Z,27.20
2018-12-29T15:52:34.093Z,27.13
2018-12-29T15:55:15.252Z,25.03
2018-12-29T15:57:56.223Z,26.23
2018-12-29T16:00:36.814Z,26.73
2018-12-29T16:03:18.094Z,24.33
2018-12-29T16:05:59.430Z,25.83
2018-12-29T16:08:40.919Z,25.23
2018-12-29T16:11:26.109Z,26.33
2018-12-29T16:13:52.818Z,26.00
2018-12-29T16:16:41.075Z,25.70
2018-12-29T16:19:10.270Z,26.30
2018-12-29T16:21:39.476Z,26.47
2018-12-29T16:24:09.288Z,29.10
2018-12-29T16:26:57.883Z,27.40
2018-12-29T16:29:27.351Z,25.60
2018-12-29T16:31:56.803Z,24.87
2018-12-29T16:34:25.963Z,24.23
2018-12-29T16:37:14.631Z,26.00
2018-12-29T16:40:04.686Z,26.03
2018-12-29T16:42:54.948Z,24.03
2018-12-29T16:45:38.359Z,23.10
2018-12-29T16:48:19.758Z,26.77
2018-12-29T16:51:01.180Z,25.97
2018-12-29T16:53:42.825Z,23.80
2018-12-29T16:56:23.360Z,25.50
2018-12-29T16:59:03.946Z,24.67
2018-12-29T17:01:33.200Z,25.23
2018-12-29T17:04:02.360Z,24.20
2018-12-29T17:06:32.702Z,23.10
2018-12-29T17:09:21.255Z,22.40
2018-12-29T17:11:52.520Z,22.70
2018-12-29T17:14:21.344Z,24.67
2018-12-29T17:16:50.526Z,23.13
2018-12-29T17:19:19.750Z,23.87
2018-12-29T17:22:01.375Z,24.07
2018-12-29T17:24:41.871Z,22.60
2018-12-29T17:27:23.421Z,25.57
2018-12-29T17:30:04.159Z,20.77
2018-12-29T17:32:44.887Z,22.00
2018-12-29T17:35:26.182Z,23.70
2018-12-29T17:38:07.064Z,24.33
2018-12-29T17:40:48.787Z,23.07
2018-12-29T17:43:29.849Z,23.40
2018-12-29T17:46:11.209Z,21.40
2018-12-29T17:48:40.547Z,20.83
2018-12-29T17:51:28.778Z,20.80
2018-12-29T17:54:17.034Z,20.70
2018-12-29T17:56:46.768Z,20.40
2018-12-29T17:59:35.609Z,19.30
2018-12-29T18:02:23.928Z,21.93
2018-12-29T18:05:12.191Z,20.00
2018-12-29T18:08:00.515Z,21.60
2018-12-29T18:10:48.998Z,20.67
2018-12-29T18:13:38.946Z,20.27
2018-12-29T18:16:27.490Z,18.20
2018-12-29T18:19:15.788Z,19.57
2018-12-29T18:22:04.346Z,19.10
2018-12-29T18:24:52.915Z,20.43
2018-12-29T18:27:41.196Z,23.10
2018-12-29T18:30:29.513Z,19.10
2018-12-29T18:33:17.843Z,23.93
2018-12-29T18:36:06.631Z,20.20
2018-12-29T18:38:54.930Z,20.17
2018-12-29T18:41:43.667Z,21.37
2018-12-29T18:44:33.608Z,19.53
2018-12-29T18:47:22.160Z,19.23
2018-12-29T18:50:03.431Z,20.53
2018-12-29T18:52:43.982Z,16.63
2018-12-29T18:55:24.958Z,17.60
2018-12-29T18:58:06.383Z,18.20
2018-12-29T19:00:47.223Z,14.73
2018-12-29T19:03:28.407Z,19.27
2018-12-29T19:06:09.542Z,17.97
2018-12-29T19:08:50.680Z,19.23
2018-12-29T19:11:31.496Z,18.43
2018-12-29T19:14:12.836Z,20.57
2018-12-29T19:16:54.822Z,15.90
2018-12-29T19:19:35.815Z,17.43
2018-12-29T19:22:16.643Z,18.00
2018-12-29T19:24:57.698Z,16.90
2018-12-29T19:27:38.856Z,18.30
2018-12-29T19:30:20.280Z,18.57
2018-12-29T19:33:02.063Z,17.40
2018-12-29T19:35:43.058Z,18.20
2018-12-29T19:38:24.588Z,17.50
2018-12-29T19:41:05.970Z,20.87
2018-12-29T19:43:47.419Z,18.33
2018-12-29T19:46:29.037Z,19.37
2018-12-29T19:49:10.430Z,19.73
2018-12-29T19:51:51.351Z,22.30
2018-12-29T19:54:20.994Z,22.30
2018-12-29T19:57:09.472Z,22.63
2018-12-29T19:59:59.943Z,23.13
2018-12-29T20:02:50.139Z,23.70
2018-12-29T20:05:39.156Z,22.40
2018-12-29T20:08:27.349Z,21.83
2018-12-29T20:11:15.825Z,22.90
2018-12-29T20:14:04.365Z,22.43
2018-12-29T20:16:52.661Z,21.57
2018-12-29T20:19:41.468Z,22.17
2018-12-29T20:22:10.599Z,23.47
2018-12-29T20:24:58.892Z,22.10
2018-12-29T20:27:47.421Z,22.30
2018-12-29T20:30:35.997Z,21.87
2018-12-29T20:33:24.341Z,18.70
2018-12-29T20:36:13.151Z,19.33
2018-12-29T20:39:01.461Z,22.00
2018-12-29T20:41:49.756Z,21.17
2018-12-29T20:44:38.102Z,20.57
2018-12-29T20:47:26.643Z,20.00
2018-12-29T20:50:14.955Z,23.43
2018-12-29T20:53:03.122Z,21.53
2018-12-29T20:55:51.448Z,22.17
2018-12-29T20:58:41.378Z,21.30
2018-12-29T21:01:30.166Z,19.43
2018-12-29T21:04:18.436Z,21.07
2018-12-29T21:07:06.724Z,20.57
2018-12-29T21:09:55.311Z,23.13
2018-12-29T21:12:43.903Z,23.07
2018-12-29T21:15:32.103Z,24.03
2018-12-29T21:18:20.322Z,22.33
2018-12-29T21:21:08.599Z,20.10
2018-12-29T21:23:57.274Z,22.10
2018-12-29T21:26:38.405Z,24.03
2018-12-29T21:29:19.460Z,22.37
2018-12-29T21:32:00.865Z,23.37
2018-12-29T21:34:41.907Z,24.73
2018-12-29T21:37:22.610Z,25.40
2018-12-29T21:40:03.335Z,21.30
2018-12-29T21:42:43.864Z,22.77
2018-12-29T21:45:25.003Z,22.33
2018-12-29T21:48:06.640Z,21.40
2018-12-29T21:50:48.728Z,23.50
2018-12-29T21:53:30.155Z,22.07
2018-12-29T21:56:10.851Z,22.20
2018-12-29T21:58:52.027Z,20.70
2018-12-29T22:01:33.366Z,21.93
2018-12-29T22:04:14.604Z,20.80
2018-12-29T22:06:55.696Z,20.63
2018-12-29T22:09:37.181Z,18.40
2018-12-29T22:12:18.627Z,19.23
2018-12-29T22:15:00.015Z,18.20
2018-12-29T22:17:40.994Z,17.33
2018-12-29T22:20:22.547Z,17.23
2018-12-29T22:23:03.569Z,14.77
2018-12-29T22:25:48.380Z,14.27
2018-12-29T22:28:27.555Z,13.37
2018-12-29T22:31:08.295Z,12.73
2018-12-29T22:33:49.364Z,12.90
2018-12-29T22:36:30.340Z,14.20
2018-12-29T22:39:10.884Z,11.23
2018-12-29T22:41:51.927Z,12.23
2018-12-29T22:44:32.767Z,11.10
2018-12-29T22:47:13.761Z,10.93
2018-12-29T22:49:54.704Z,12.30
2018-12-29T22:52:35.543Z,9.90
2018-12-29T22:55:16.359Z,10.40
2018-12-29T22:57:57.236Z,11.33
2018-12-29T23:00:42.390Z,10.37
2018-12-29T23:03:23.612Z,11.83
2018-12-29T23:06:05.285Z,10.10
2018-12-29T23:08:45.945Z,10.93
2018-12-29T23:11:26.949Z,11.10
2018-12-29T23:14:07.759Z,10.27
2018-12-29T23:16:48.313Z,12.10
2018-12-29T23:19:29.268Z,12.07
2018-12-29T23:22:09.752Z,11.10
2018-12-29T23:24:50.264Z,10.40
2018-12-29T23:27:31.227Z,10.83
2018-12-29T23:30:12.520Z,9.70
2018-12-29T23:32:53.690Z,11.63
2018-12-29T23:35:34.835Z,11.30
2018-12-29T23:38:15.892Z,10.80
2018-12-29T23:40:56.795Z,10.97
2018-12-29T23:43:37.504Z,10.30
2018-12-29T23:46:18.251Z,10.37
2018-12-29T23:48:58.945Z,11.27
2018-12-29T23:51:40.099Z,9.20
2018-12-29T23:54:21.329Z,9.37
2018-12-29T23:57:02.676Z,9.83
2018-12-29T23:59:43.767Z,8.20
